Terminal Aerodrome Forecast
Issued by NWS Wakefield, VA

Home | Current Version | Previous Version | Text Only | Print | Product List | Glossary On
Versions: 1 2 3 4 5 6 7 8 9 10 11 12 13 14 15 16 17 18 19 20 21 22 23 24 25
000
FTUS41 KAKQ 301731
TAFSBY
TAF
KSBY 301731Z 3018/0118 09004KT P6SM BKN025
     FM302200 09005KT P6SM BKN035
     FM010400 09003KT P6SM OVC025
     FM010700 11004KT 6SM -RA BR OVC015
     FM011100 13005KT 5SM BR OVC007=

USA.gov is the U.S. government's official web portal to all federal, state and local government web resources and services.